sensor_id;sensor_type;location;lat;lon;timestamp;P1;durP1;ratioP1;P2;durP2;ratioP2
18425;SDS011;9340;48.756;9.226;2023-02-28T00:00:45;2.70;;;2.40;;
18425;SDS011;9340;48.756;9.226;2023-02-28T00:03:12;3.00;;;2.70;;
18425;SDS011;9340;48.756;9.226;2023-02-28T00:05:39;3.47;;;2.87;;
18425;SDS011;9340;48.756;9.226;2023-02-28T00:08:06;4.20;;;2.50;;
18425;SDS011;9340;48.756;9.226;2023-02-28T00:10:34;3.60;;;2.60;;
18425;SDS011;9340;48.756;9.226;2023-02-28T00:13:02;3.47;;;2.50;;
18425;SDS011;9340;48.756;9.226;2023-02-28T00:15:30;4.10;;;2.70;;
18425;SDS011;9340;48.756;9.226;2023-02-28T00:17:58;4.23;;;3.00;;
18425;SDS011;9340;48.756;9.226;2023-02-28T00:20:24;4.17;;;2.60;;
18425;SDS011;9340;48.756;9.226;2023-02-28T00:22:52;4.37;;;2.93;;
18425;SDS011;9340;48.756;9.226;2023-02-28T00:25:20;3.80;;;2.73;;
18425;SDS011;9340;48.756;9.226;2023-02-28T00:27:49;4.03;;;2.70;;
18425;SDS011;9340;48.756;9.226;2023-02-28T00:30:17;3.20;;;2.87;;
18425;SDS011;9340;48.756;9.226;2023-02-28T00:32:46;5.03;;;2.93;;
18425;SDS011;9340;48.756;9.226;2023-02-28T00:35:13;3.47;;;3.10;;
18425;SDS011;9340;48.756;9.226;2023-02-28T00:37:40;3.20;;;2.60;;
18425;SDS011;9340;48.756;9.226;2023-02-28T00:40:07;4.00;;;3.27;;
18425;SDS011;9340;48.756;9.226;2023-02-28T00:42:36;3.87;;;2.90;;
18425;SDS011;9340;48.756;9.226;2023-02-28T00:45:05;3.70;;;3.07;;
18425;SDS011;9340;48.756;9.226;2023-02-28T00:47:32;5.03;;;3.27;;
18425;SDS011;9340;48.756;9.226;2023-02-28T00:49:59;4.30;;;2.93;;
18425;SDS011;9340;48.756;9.226;2023-02-28T00:52:27;5.13;;;3.03;;
18425;SDS011;9340;48.756;9.226;2023-02-28T00:54:54;3.70;;;2.80;;
18425;SDS011;9340;48.756;9.226;2023-02-28T00:57:20;4.10;;;3.40;;
18425;SDS011;9340;48.756;9.226;2023-02-28T00:59:47;4.03;;;2.67;;
18425;SDS011;9340;48.756;9.226;2023-02-28T01:02:15;4.57;;;3.10;;
18425;SDS011;9340;48.756;9.226;2023-02-28T01:04:43;4.40;;;3.10;;
18425;SDS011;9340;48.756;9.226;2023-02-28T01:07:09;5.83;;;3.13;;
18425;SDS011;9340;48.756;9.226;2023-02-28T01:09:36;4.03;;;3.10;;
18425;SDS011;9340;48.756;9.226;2023-02-28T01:12:03;4.70;;;3.53;;
18425;SDS011;9340;48.756;9.226;2023-02-28T01:14:30;3.70;;;2.83;;
18425;SDS011;9340;48.756;9.226;2023-02-28T01:16:56;3.90;;;3.40;;
18425;SDS011;9340;48.756;9.226;2023-02-28T01:19:24;4.40;;;3.17;;
18425;SDS011;9340;48.756;9.226;2023-02-28T01:21:51;5.27;;;3.57;;
18425;SDS011;9340;48.756;9.226;2023-02-28T01:24:18;3.83;;;3.17;;
18425;SDS011;9340;48.756;9.226;2023-02-28T01:26:45;4.07;;;3.10;;
18425;SDS011;9340;48.756;9.226;2023-02-28T01:29:11;4.27;;;3.40;;
18425;SDS011;9340;48.756;9.226;2023-02-28T01:31:38;4.60;;;3.03;;
18425;SDS011;9340;48.756;9.226;2023-02-28T01:34:05;5.77;;;3.47;;
18425;SDS011;9340;48.756;9.226;2023-02-28T01:36:33;5.43;;;3.07;;
18425;SDS011;9340;48.756;9.226;2023-02-28T01:39:01;4.07;;;2.90;;
18425;SDS011;9340;48.756;9.226;2023-02-28T01:41:29;4.00;;;2.77;;
18425;SDS011;9340;48.756;9.226;2023-02-28T01:43:58;4.73;;;3.20;;
18425;SDS011;9340;48.756;9.226;2023-02-28T01:46:28;3.70;;;2.80;;
18425;SDS011;9340;48.756;9.226;2023-02-28T01:48:58;3.40;;;2.80;;
18425;SDS011;9340;48.756;9.226;2023-02-28T01:51:33;4.13;;;3.23;;
18425;SDS011;9340;48.756;9.226;2023-02-28T01:54:05;4.43;;;3.10;;
18425;SDS011;9340;48.756;9.226;2023-02-28T01:56:38;4.20;;;3.30;;
18425;SDS011;9340;48.756;9.226;2023-02-28T01:59:08;6.07;;;3.27;;
18425;SDS011;9340;48.756;9.226;2023-02-28T02:01:36;3.87;;;2.80;;
18425;SDS011;9340;48.756;9.226;2023-02-28T02:04:03;3.83;;;3.53;;
18425;SDS011;9340;48.756;9.226;2023-02-28T02:06:34;5.03;;;3.33;;
18425;SDS011;9340;48.756;9.226;2023-02-28T02:09:05;5.63;;;3.20;;
18425;SDS011;9340;48.756;9.226;2023-02-28T02:11:32;3.87;;;3.20;;
18425;SDS011;9340;48.756;9.226;2023-02-28T02:14:05;5.43;;;3.90;;
18425;SDS011;9340;48.756;9.226;2023-02-28T02:16:42;5.70;;;3.00;;
18425;SDS011;9340;48.756;9.226;2023-02-28T02:19:25;4.03;;;3.07;;
18425;SDS011;9340;48.756;9.226;2023-02-28T02:22:28;6.63;;;3.43;;
18425;SDS011;9340;48.756;9.226;2023-02-28T02:25:15;4.90;;;3.10;;
18425;SDS011;9340;48.756;9.226;2023-02-28T02:28:00;4.20;;;3.40;;
18425;SDS011;9340;48.756;9.226;2023-02-28T02:30:54;4.03;;;3.63;;
18425;SDS011;9340;48.756;9.226;2023-02-28T02:33:37;5.07;;;3.60;;
18425;SDS011;9340;48.756;9.226;2023-02-28T02:36:37;4.20;;;3.73;;
18425;SDS011;9340;48.756;9.226;2023-02-28T02:39:13;4.80;;;3.40;;
18425;SDS011;9340;48.756;9.226;2023-02-28T02:41:45;6.50;;;3.83;;
18425;SDS011;9340;48.756;9.226;2023-02-28T02:44:17;4.10;;;3.60;;
18425;SDS011;9340;48.756;9.226;2023-02-28T02:46:47;4.37;;;3.67;;
18425;SDS011;9340;48.756;9.226;2023-02-28T02:49:19;4.93;;;3.67;;
18425;SDS011;9340;48.756;9.226;2023-02-28T02:51:48;4.80;;;3.83;;
18425;SDS011;9340;48.756;9.226;2023-02-28T02:54:19;4.33;;;3.73;;
18425;SDS011;9340;48.756;9.226;2023-02-28T02:56:49;5.07;;;3.70;;
18425;SDS011;9340;48.756;9.226;2023-02-28T02:59:18;5.47;;;3.80;;
18425;SDS011;9340;48.756;9.226;2023-02-28T03:01:49;4.60;;;4.00;;
18425;SDS011;9340;48.756;9.226;2023-02-28T03:04:20;6.17;;;3.90;;
18425;SDS011;9340;48.756;9.226;2023-02-28T03:06:50;5.63;;;3.90;;
18425;SDS011;9340;48.756;9.226;2023-02-28T03:09:19;7.43;;;4.30;;
18425;SDS011;9340;48.756;9.226;2023-02-28T03:11:46;4.73;;;3.83;;
18425;SDS011;9340;48.756;9.226;2023-02-28T03:14:21;4.67;;;4.13;;
18425;SDS011;9340;48.756;9.226;2023-02-28T03:16:58;4.77;;;3.60;;
18425;SDS011;9340;48.756;9.226;2023-02-28T03:19:47;4.90;;;4.33;;
18425;SDS011;9340;48.756;9.226;2023-02-28T03:22:33;4.33;;;3.93;;
18425;SDS011;9340;48.756;9.226;2023-02-28T03:25:16;4.47;;;3.90;;
18425;SDS011;9340;48.756;9.226;2023-02-28T03:27:48;4.50;;;3.83;;
18425;SDS011;9340;48.756;9.226;2023-02-28T03:30:22;5.53;;;3.80;;
18425;SDS011;9340;48.756;9.226;2023-02-28T03:32:54;7.17;;;4.57;;
18425;SDS011;9340;48.756;9.226;2023-02-28T03:35:26;3.83;;;3.53;;
18425;SDS011;9340;48.756;9.226;2023-02-28T03:37:58;7.53;;;4.70;;
18425;SDS011;9340;48.756;9.226;2023-02-28T03:40:31;5.23;;;4.50;;
18425;SDS011;9340;48.756;9.226;2023-02-28T03:43:01;8.53;;;4.07;;
18425;SDS011;9340;48.756;9.226;2023-02-28T03:45:34;4.53;;;3.53;;
18425;SDS011;9340;48.756;9.226;2023-02-28T03:48:05;5.87;;;4.03;;
18425;SDS011;9340;48.756;9.226;2023-02-28T03:50:39;4.43;;;4.03;;
18425;SDS011;9340;48.756;9.226;2023-02-28T03:53:09;4.73;;;4.27;;
18425;SDS011;9340;48.756;9.226;2023-02-28T03:55:40;5.20;;;4.40;;
18425;SDS011;9340;48.756;9.226;2023-02-28T03:58:11;4.70;;;3.80;;
18425;SDS011;9340;48.756;9.226;2023-02-28T04:00:43;4.90;;;4.13;;
18425;SDS011;9340;48.756;9.226;2023-02-28T04:03:13;5.17;;;4.00;;
18425;SDS011;9340;48.756;9.226;2023-02-28T04:05:48;5.20;;;4.17;;
18425;SDS011;9340;48.756;9.226;2023-02-28T04:08:17;5.20;;;4.13;;
18425;SDS011;9340;48.756;9.226;2023-02-28T04:10:44;4.70;;;3.83;;
18425;SDS011;9340;48.756;9.226;2023-02-28T04:13:14;6.20;;;4.17;;
18425;SDS011;9340;48.756;9.226;2023-02-28T04:15:40;4.60;;;3.53;;
18425;SDS011;9340;48.756;9.226;2023-02-28T04:18:07;5.33;;;4.33;;
18425;SDS011;9340;48.756;9.226;2023-02-28T04:20:34;5.43;;;4.07;;
18425;SDS011;9340;48.756;9.226;2023-02-28T04:23:02;5.33;;;4.20;;
18425;SDS011;9340;48.756;9.226;2023-02-28T04:25:28;5.53;;;4.23;;
18425;SDS011;9340;48.756;9.226;2023-02-28T04:27:55;6.60;;;4.33;;
18425;SDS011;9340;48.756;9.226;2023-02-28T04:30:22;5.33;;;4.40;;
18425;SDS011;9340;48.756;9.226;2023-02-28T04:32:48;4.90;;;4.40;;
18425;SDS011;9340;48.756;9.226;2023-02-28T04:35:15;5.40;;;4.57;;
18425;SDS011;9340;48.756;9.226;2023-02-28T04:37:42;6.80;;;4.53;;
18425;SDS011;9340;48.756;9.226;2023-02-28T04:40:10;6.33;;;4.00;;
18425;SDS011;9340;48.756;9.226;2023-02-28T04:42:38;6.07;;;4.83;;
18425;SDS011;9340;48.756;9.226;2023-02-28T04:45:05;4.57;;;4.13;;
18425;SDS011;9340;48.756;9.226;2023-02-28T04:47:35;5.83;;;4.17;;
18425;SDS011;9340;48.756;9.226;2023-02-28T04:50:01;4.97;;;4.23;;
18425;SDS011;9340;48.756;9.226;2023-02-28T04:52:29;6.73;;;4.50;;
18425;SDS011;9340;48.756;9.226;2023-02-28T04:54:58;5.17;;;4.50;;
18425;SDS011;9340;48.756;9.226;2023-02-28T04:57:26;5.10;;;4.20;;
18425;SDS011;9340;48.756;9.226;2023-02-28T04:59:53;5.03;;;4.53;;
18425;SDS011;9340;48.756;9.226;2023-02-28T05:02:19;4.70;;;4.23;;
18425;SDS011;9340;48.756;9.226;2023-02-28T05:04:46;5.63;;;4.27;;
18425;SDS011;9340;48.756;9.226;2023-02-28T05:07:14;4.63;;;3.80;;
18425;SDS011;9340;48.756;9.226;2023-02-28T05:09:40;4.80;;;4.07;;
18425;SDS011;9340;48.756;9.226;2023-02-28T05:12:08;5.60;;;4.50;;
18425;SDS011;9340;48.756;9.226;2023-02-28T05:14:36;5.47;;;4.73;;
18425;SDS011;9340;48.756;9.226;2023-02-28T05:17:03;6.43;;;4.43;;
18425;SDS011;9340;48.756;9.226;2023-02-28T05:19:30;5.40;;;4.90;;
18425;SDS011;9340;48.756;9.226;2023-02-28T05:21:56;6.17;;;4.70;;
18425;SDS011;9340;48.756;9.226;2023-02-28T05:24:23;6.13;;;4.83;;
18425;SDS011;9340;48.756;9.226;2023-02-28T05:26:51;4.80;;;4.30;;
18425;SDS011;9340;48.756;9.226;2023-02-28T05:29:19;5.57;;;4.97;;
18425;SDS011;9340;48.756;9.226;2023-02-28T05:31:48;6.90;;;4.50;;
18425;SDS011;9340;48.756;9.226;2023-02-28T05:34:15;5.27;;;4.70;;
18425;SDS011;9340;48.756;9.226;2023-02-28T05:36:41;6.20;;;4.87;;
18425;SDS011;9340;48.756;9.226;2023-02-28T05:39:08;5.60;;;5.00;;
18425;SDS011;9340;48.756;9.226;2023-02-28T05:41:37;5.77;;;5.17;;
18425;SDS011;9340;48.756;9.226;2023-02-28T05:44:06;4.53;;;4.13;;
18425;SDS011;9340;48.756;9.226;2023-02-28T05:46:32;6.33;;;5.10;;
18425;SDS011;9340;48.756;9.226;2023-02-28T05:49:01;6.63;;;5.00;;
18425;SDS011;9340;48.756;9.226;2023-02-28T05:51:28;6.17;;;4.90;;
18425;SDS011;9340;48.756;9.226;2023-02-28T05:53:54;7.23;;;5.67;;
18425;SDS011;9340;48.756;9.226;2023-02-28T05:56:25;6.83;;;5.97;;
18425;SDS011;9340;48.756;9.226;2023-02-28T05:58:51;5.70;;;5.07;;
18425;SDS011;9340;48.756;9.226;2023-02-28T06:01:19;5.53;;;4.70;;
18425;SDS011;9340;48.756;9.226;2023-02-28T06:03:49;5.73;;;4.97;;
18425;SDS011;9340;48.756;9.226;2023-02-28T06:06:17;7.20;;;5.30;;
18425;SDS011;9340;48.756;9.226;2023-02-28T06:08:44;7.03;;;5.30;;
18425;SDS011;9340;48.756;9.226;2023-02-28T06:11:10;7.53;;;5.43;;
18425;SDS011;9340;48.756;9.226;2023-02-28T06:13:37;5.50;;;4.60;;
18425;SDS011;9340;48.756;9.226;2023-02-28T06:16:04;6.03;;;5.17;;
18425;SDS011;9340;48.756;9.226;2023-02-28T06:18:32;7.23;;;5.50;;
18425;SDS011;9340;48.756;9.226;2023-02-28T06:20:58;6.13;;;5.13;;
18425;SDS011;9340;48.756;9.226;2023-02-28T06:23:27;8.30;;;4.97;;
18425;SDS011;9340;48.756;9.226;2023-02-28T06:25:53;6.60;;;5.83;;
18425;SDS011;9340;48.756;9.226;2023-02-28T06:28:23;8.13;;;6.07;;
18425;SDS011;9340;48.756;9.226;2023-02-28T06:30:51;6.83;;;5.50;;
18425;SDS011;9340;48.756;9.226;2023-02-28T06:33:17;6.43;;;5.73;;
18425;SDS011;9340;48.756;9.226;2023-02-28T06:35:44;8.03;;;5.70;;
18425;SDS011;9340;48.756;9.226;2023-02-28T06:38:12;7.20;;;5.47;;
18425;SDS011;9340;48.756;9.226;2023-02-28T06:40:41;6.63;;;5.93;;
18425;SDS011;9340;48.756;9.226;2023-02-28T06:43:08;7.57;;;5.77;;
18425;SDS011;9340;48.756;9.226;2023-02-28T06:45:40;8.10;;;6.17;;
18425;SDS011;9340;48.756;9.226;2023-02-28T06:48:08;6.37;;;5.70;;
18425;SDS011;9340;48.756;9.226;2023-02-28T06:50:35;11.10;;;6.33;;
18425;SDS011;9340;48.756;9.226;2023-02-28T06:53:02;7.63;;;6.17;;
18425;SDS011;9340;48.756;9.226;2023-02-28T06:55:29;6.50;;;5.53;;
18425;SDS011;9340;48.756;9.226;2023-02-28T06:57:57;7.73;;;5.63;;
18425;SDS011;9340;48.756;9.226;2023-02-28T07:00:24;7.10;;;6.30;;
18425;SDS011;9340;48.756;9.226;2023-02-28T07:02:51;7.23;;;5.93;;
18425;SDS011;9340;48.756;9.226;2023-02-28T07:05:20;9.40;;;6.30;;
18425;SDS011;9340;48.756;9.226;2023-02-28T07:07:46;7.10;;;6.40;;
18425;SDS011;9340;48.756;9.226;2023-02-28T07:10:13;8.00;;;6.17;;
18425;SDS011;9340;48.756;9.226;2023-02-28T07:12:41;7.57;;;6.20;;
18425;SDS011;9340;48.756;9.226;2023-02-28T07:15:10;7.50;;;6.40;;
18425;SDS011;9340;48.756;9.226;2023-02-28T07:17:37;9.20;;;6.47;;
18425;SDS011;9340;48.756;9.226;2023-02-28T07:20:04;8.07;;;6.50;;
18425;SDS011;9340;48.756;9.226;2023-02-28T07:22:32;8.13;;;6.60;;
18425;SDS011;9340;48.756;9.226;2023-02-28T07:24:58;9.40;;;6.63;;
18425;SDS011;9340;48.756;9.226;2023-02-28T07:27:25;10.67;;;7.27;;
18425;SDS011;9340;48.756;9.226;2023-02-28T07:29:52;9.20;;;7.00;;
18425;SDS011;9340;48.756;9.226;2023-02-28T07:32:21;8.70;;;6.80;;
18425;SDS011;9340;48.756;9.226;2023-02-28T07:34:47;8.40;;;6.10;;
18425;SDS011;9340;48.756;9.226;2023-02-28T07:37:14;8.30;;;6.80;;
18425;SDS011;9340;48.756;9.226;2023-02-28T07:39:42;8.93;;;6.20;;
18425;SDS011;9340;48.756;9.226;2023-02-28T07:42:09;7.33;;;6.60;;
18425;SDS011;9340;48.756;9.226;2023-02-28T07:44:37;8.90;;;7.13;;
18425;SDS011;9340;48.756;9.226;2023-02-28T07:47:05;7.80;;;6.63;;
18425;SDS011;9340;48.756;9.226;2023-02-28T07:49:34;8.77;;;7.17;;
18425;SDS011;9340;48.756;9.226;2023-02-28T07:52:01;10.07;;;7.20;;
18425;SDS011;9340;48.756;9.226;2023-02-28T07:54:28;10.63;;;7.57;;
18425;SDS011;9340;48.756;9.226;2023-02-28T07:56:55;9.40;;;8.07;;
18425;SDS011;9340;48.756;9.226;2023-02-28T07:59:22;9.60;;;7.23;;
18425;SDS011;9340;48.756;9.226;2023-02-28T08:01:49;7.83;;;7.03;;
18425;SDS011;9340;48.756;9.226;2023-02-28T08:04:16;10.00;;;7.30;;
18425;SDS011;9340;48.756;9.226;2023-02-28T08:06:44;8.37;;;7.27;;
18425;SDS011;9340;48.756;9.226;2023-02-28T08:09:11;13.50;;;9.00;;
18425;SDS011;9340;48.756;9.226;2023-02-28T08:11:37;9.47;;;7.50;;
18425;SDS011;9340;48.756;9.226;2023-02-28T08:14:04;8.73;;;7.73;;
18425;SDS011;9340;48.756;9.226;2023-02-28T08:16:31;9.20;;;8.40;;
18425;SDS011;9340;48.756;9.226;2023-02-28T08:18:58;8.97;;;8.10;;
18425;SDS011;9340;48.756;9.226;2023-02-28T08:21:24;10.10;;;7.67;;
18425;SDS011;9340;48.756;9.226;2023-02-28T08:23:52;8.60;;;7.23;;
18425;SDS011;9340;48.756;9.226;2023-02-28T08:26:19;7.30;;;6.60;;
18425;SDS011;9340;48.756;9.226;2023-02-28T08:28:47;9.03;;;7.93;;
18425;SDS011;9340;48.756;9.226;2023-02-28T08:31:14;8.60;;;7.80;;
18425;SDS011;9340;48.756;9.226;2023-02-28T08:33:42;9.93;;;7.20;;
18425;SDS011;9340;48.756;9.226;2023-02-28T08:36:10;9.55;;;8.02;;
18425;SDS011;9340;48.756;9.226;2023-02-28T08:38:37;10.35;;;8.63;;
18425;SDS011;9340;48.756;9.226;2023-02-28T08:41:06;8.17;;;7.37;;
18425;SDS011;9340;48.756;9.226;2023-02-28T08:43:34;7.70;;;6.90;;
18425;SDS011;9340;48.756;9.226;2023-02-28T08:46:02;7.63;;;6.93;;
18425;SDS011;9340;48.756;9.226;2023-02-28T08:48:30;8.77;;;7.88;;
18425;SDS011;9340;48.756;9.226;2023-02-28T08:50:59;8.95;;;7.63;;
18425;SDS011;9340;48.756;9.226;2023-02-28T08:53:27;9.87;;;7.40;;
18425;SDS011;9340;48.756;9.226;2023-02-28T08:55:57;9.77;;;7.77;;
18425;SDS011;9340;48.756;9.226;2023-02-28T08:58:27;8.57;;;6.77;;
18425;SDS011;9340;48.756;9.226;2023-02-28T09:00:54;9.17;;;7.67;;
18425;SDS011;9340;48.756;9.226;2023-02-28T09:03:21;8.00;;;7.20;;
18425;SDS011;9340;48.756;9.226;2023-02-28T09:05:53;8.97;;;7.27;;
18425;SDS011;9340;48.756;9.226;2023-02-28T09:08:21;7.93;;;6.60;;
18425;SDS011;9340;48.756;9.226;2023-02-28T09:10:48;7.73;;;6.93;;
18425;SDS011;9340;48.756;9.226;2023-02-28T09:13:15;8.57;;;7.67;;
18425;SDS011;9340;48.756;9.226;2023-02-28T09:15:43;9.23;;;7.73;;
18425;SDS011;9340;48.756;9.226;2023-02-28T09:18:10;9.73;;;7.43;;
18425;SDS011;9340;48.756;9.226;2023-02-28T09:20:37;9.67;;;7.60;;
18425;SDS011;9340;48.756;9.226;2023-02-28T09:23:04;8.23;;;7.07;;
18425;SDS011;9340;48.756;9.226;2023-02-28T09:25:32;11.77;;;7.93;;
18425;SDS011;9340;48.756;9.226;2023-02-28T09:27:58;10.00;;;7.90;;
18425;SDS011;9340;48.756;9.226;2023-02-28T09:30:26;8.77;;;7.73;;
18425;SDS011;9340;48.756;9.226;2023-02-28T09:32:54;9.83;;;7.30;;
18425;SDS011;9340;48.756;9.226;2023-02-28T09:35:21;8.27;;;7.20;;
18425;SDS011;9340;48.756;9.226;2023-02-28T09:37:50;9.13;;;7.70;;
18425;SDS011;9340;48.756;9.226;2023-02-28T09:40:17;9.80;;;8.10;;
18425;SDS011;9340;48.756;9.226;2023-02-28T09:42:46;9.40;;;7.40;;
18425;SDS011;9340;48.756;9.226;2023-02-28T09:45:17;8.63;;;7.43;;
18425;SDS011;9340;48.756;9.226;2023-02-28T09:47:52;8.47;;;7.50;;
18425;SDS011;9340;48.756;9.226;2023-02-28T09:50:28;9.53;;;7.63;;
18425;SDS011;9340;48.756;9.226;2023-02-28T09:52:59;9.30;;;7.10;;
18425;SDS011;9340;48.756;9.226;2023-02-28T09:55:30;12.23;;;7.37;;
18425;SDS011;9340;48.756;9.226;2023-02-28T09:58:03;9.00;;;8.10;;
18425;SDS011;9340;48.756;9.226;2023-02-28T10:00:32;9.53;;;6.77;;
18425;SDS011;9340;48.756;9.226;2023-02-28T10:03:06;7.80;;;7.03;;
18425;SDS011;9340;48.756;9.226;2023-02-28T10:05:50;8.10;;;7.30;;
18425;SDS011;9340;48.756;9.226;2023-02-28T10:08:21;7.77;;;7.03;;
18425;SDS011;9340;48.756;9.226;2023-02-28T10:10:51;9.10;;;7.83;;
18425;SDS011;9340;48.756;9.226;2023-02-28T10:13:23;9.17;;;7.60;;
18425;SDS011;9340;48.756;9.226;2023-02-28T10:15:54;8.20;;;7.30;;
18425;SDS011;9340;48.756;9.226;2023-02-28T10:18:27;10.63;;;9.07;;
18425;SDS011;9340;48.756;9.226;2023-02-28T10:20:57;8.27;;;7.47;;
18425;SDS011;9340;48.756;9.226;2023-02-28T10:23:26;8.17;;;7.37;;
18425;SDS011;9340;48.756;9.226;2023-02-28T10:25:58;9.23;;;8.23;;
18425;SDS011;9340;48.756;9.226;2023-02-28T10:28:26;8.83;;;7.93;;
18425;SDS011;9340;48.756;9.226;2023-02-28T10:30:56;8.70;;;7.80;;
18425;SDS011;9340;48.756;9.226;2023-02-28T10:33:27;9.47;;;8.20;;
18425;SDS011;9340;48.756;9.226;2023-02-28T10:35:55;9.97;;;7.90;;
18425;SDS011;9340;48.756;9.226;2023-02-28T10:38:24;10.03;;;7.43;;
18425;SDS011;9340;48.756;9.226;2023-02-28T10:40:52;8.77;;;7.03;;
18425;SDS011;9340;48.756;9.226;2023-02-28T10:43:31;8.80;;;7.90;;
18425;SDS011;9340;48.756;9.226;2023-02-28T10:46:01;8.67;;;7.40;;
18425;SDS011;9340;48.756;9.226;2023-02-28T10:48:32;8.57;;;7.70;;
18425;SDS011;9340;48.756;9.226;2023-02-28T10:51:00;7.87;;;7.07;;
18425;SDS011;9340;48.756;9.226;2023-02-28T10:53:30;8.97;;;8.07;;
18425;SDS011;9340;48.756;9.226;2023-02-28T10:56:00;8.20;;;7.23;;
18425;SDS011;9340;48.756;9.226;2023-02-28T10:58:29;9.17;;;8.03;;
18425;SDS011;9340;48.756;9.226;2023-02-28T11:00:58;8.30;;;7.50;;
18425;SDS011;9340;48.756;9.226;2023-02-28T11:03:29;12.13;;;9.80;;
18425;SDS011;9340;48.756;9.226;2023-02-28T11:06:03;10.00;;;8.73;;
18425;SDS011;9340;48.756;9.226;2023-02-28T11:08:32;9.87;;;8.37;;
18425;SDS011;9340;48.756;9.226;2023-02-28T11:11:01;9.70;;;8.73;;
18425;SDS011;9340;48.756;9.226;2023-02-28T11:13:32;8.87;;;7.97;;
18425;SDS011;9340;48.756;9.226;2023-02-28T11:16:00;9.80;;;8.80;;
18425;SDS011;9340;48.756;9.226;2023-02-28T11:18:30;11.70;;;8.47;;
18425;SDS011;9340;48.756;9.226;2023-02-28T11:21:04;10.63;;;8.73;;
18425;SDS011;9340;48.756;9.226;2023-02-28T11:23:32;9.37;;;8.37;;
18425;SDS011;9340;48.756;9.226;2023-02-28T11:26:02;12.07;;;9.27;;
18425;SDS011;9340;48.756;9.226;2023-02-28T11:28:35;26.97;;;19.60;;
18425;SDS011;9340;48.756;9.226;2023-02-28T11:31:05;13.67;;;11.50;;
18425;SDS011;9340;48.756;9.226;2023-02-28T11:33:46;9.43;;;8.43;;
18425;SDS011;9340;48.756;9.226;2023-02-28T11:36:17;9.63;;;8.63;;
18425;SDS011;9340;48.756;9.226;2023-02-28T11:38:46;9.17;;;8.27;;
18425;SDS011;9340;48.756;9.226;2023-02-28T11:41:18;8.50;;;7.67;;
18425;SDS011;9340;48.756;9.226;2023-02-28T11:43:58;9.10;;;8.20;;
18425;SDS011;9340;48.756;9.226;2023-02-28T11:46:33;8.47;;;7.67;;
18425;SDS011;9340;48.756;9.226;2023-02-28T11:49:07;9.70;;;8.17;;
18425;SDS011;9340;48.756;9.226;2023-02-28T11:51:50;8.53;;;7.63;;
18425;SDS011;9340;48.756;9.226;2023-02-28T11:54:25;9.87;;;8.20;;
18425;SDS011;9340;48.756;9.226;2023-02-28T11:57:17;8.10;;;7.37;;
18425;SDS011;9340;48.756;9.226;2023-02-28T11:59:57;8.27;;;7.47;;
18425;SDS011;9340;48.756;9.226;2023-02-28T12:02:30;10.23;;;8.77;;
18425;SDS011;9340;48.756;9.226;2023-02-28T12:05:13;10.40;;;8.50;;
18425;SDS011;9340;48.756;9.226;2023-02-28T12:07:50;9.17;;;8.00;;
18425;SDS011;9340;48.756;9.226;2023-02-28T12:10:30;9.77;;;8.17;;
18425;SDS011;9340;48.756;9.226;2023-02-28T12:13:08;8.60;;;7.70;;
18425;SDS011;9340;48.756;9.226;2023-02-28T12:18:50;8.00;;;6.67;;
18425;SDS011;9340;48.756;9.226;2023-02-28T12:21:27;8.30;;;7.20;;
18425;SDS011;9340;48.756;9.226;2023-02-28T12:27:09;8.90;;;8.10;;
18425;SDS011;9340;48.756;9.226;2023-02-28T12:29:41;10.33;;;8.43;;
18425;SDS011;9340;48.756;9.226;2023-02-28T12:32:15;10.27;;;8.30;;
18425;SDS011;9340;48.756;9.226;2023-02-28T12:34:47;9.90;;;7.97;;
18425;SDS011;9340;48.756;9.226;2023-02-28T12:37:22;9.73;;;8.73;;
18425;SDS011;9340;48.756;9.226;2023-02-28T12:39:54;9.60;;;8.53;;
18425;SDS011;9340;48.756;9.226;2023-02-28T12:42:28;9.57;;;8.67;;
18425;SDS011;9340;48.756;9.226;2023-02-28T12:44:58;8.40;;;7.53;;
18425;SDS011;9340;48.756;9.226;2023-02-28T12:47:28;10.77;;;8.67;;
18425;SDS011;9340;48.756;9.226;2023-02-28T12:49:56;8.97;;;7.53;;
18425;SDS011;9340;48.756;9.226;2023-02-28T12:52:28;9.00;;;8.07;;
18425;SDS011;9340;48.756;9.226;2023-02-28T12:55:03;9.87;;;8.87;;
18425;SDS011;9340;48.756;9.226;2023-02-28T12:57:34;9.10;;;8.17;;
18425;SDS011;9340;48.756;9.226;2023-02-28T13:00:08;8.77;;;7.77;;
18425;SDS011;9340;48.756;9.226;2023-02-28T13:05:49;8.93;;;8.13;;
18425;SDS011;9340;48.756;9.226;2023-02-28T13:11:40;8.87;;;7.97;;
18425;SDS011;9340;48.756;9.226;2023-02-28T13:14:16;11.00;;;9.63;;
18425;SDS011;9340;48.756;9.226;2023-02-28T13:16:51;9.63;;;8.10;;
18425;SDS011;9340;48.756;9.226;2023-02-28T13:19:22;10.10;;;8.07;;
18425;SDS011;9340;48.756;9.226;2023-02-28T13:21:50;8.50;;;7.70;;
18425;SDS011;9340;48.756;9.226;2023-02-28T13:30:00;8.47;;;7.50;;
18425;SDS011;9340;48.756;9.226;2023-02-28T13:32:34;10.03;;;8.13;;
18425;SDS011;9340;48.756;9.226;2023-02-28T13:38:13;8.60;;;7.73;;
18425;SDS011;9340;48.756;9.226;2023-02-28T13:40:56;8.80;;;7.87;;
18425;SDS011;9340;48.756;9.226;2023-02-28T13:44:15;9.03;;;7.60;;
18425;SDS011;9340;48.756;9.226;2023-02-28T13:49:53;9.10;;;8.20;;
18425;SDS011;9340;48.756;9.226;2023-02-28T13:52:23;10.10;;;8.10;;
18425;SDS011;9340;48.756;9.226;2023-02-28T13:54:58;8.93;;;8.03;;
18425;SDS011;9340;48.756;9.226;2023-02-28T13:57:54;8.70;;;7.80;;
18425;SDS011;9340;48.756;9.226;2023-02-28T14:00:34;12.03;;;7.90;;
18425;SDS011;9340;48.756;9.226;2023-02-28T14:03:14;9.38;;;8.48;;
18425;SDS011;9340;48.756;9.226;2023-02-28T14:08:34;10.45;;;9.35;;
18425;SDS011;9340;48.756;9.226;2023-02-28T14:11:03;9.00;;;8.10;;
18425;SDS011;9340;48.756;9.226;2023-02-28T14:13:38;9.77;;;8.77;;
18425;SDS011;9340;48.756;9.226;2023-02-28T14:16:10;8.80;;;7.93;;
18425;SDS011;9340;48.756;9.226;2023-02-28T14:18:40;9.20;;;8.30;;
18425;SDS011;9340;48.756;9.226;2023-02-28T14:21:14;8.53;;;7.73;;
18425;SDS011;9340;48.756;9.226;2023-02-28T14:23:55;8.60;;;7.63;;
18425;SDS011;9340;48.756;9.226;2023-02-28T14:27:01;8.60;;;7.67;;
18425;SDS011;9340;48.756;9.226;2023-02-28T14:29:38;9.07;;;7.60;;
18425;SDS011;9340;48.756;9.226;2023-02-28T14:32:22;9.13;;;8.30;;
18425;SDS011;9340;48.756;9.226;2023-02-28T14:34:58;9.60;;;8.33;;
18425;SDS011;9340;48.756;9.226;2023-02-28T14:37:36;9.98;;;8.25;;
18425;SDS011;9340;48.756;9.226;2023-02-28T14:40:11;9.50;;;7.87;;
18425;SDS011;9340;48.756;9.226;2023-02-28T14:42:45;9.00;;;7.73;;
18425;SDS011;9340;48.756;9.226;2023-02-28T14:45:17;10.53;;;8.53;;
18425;SDS011;9340;48.756;9.226;2023-02-28T14:47:46;9.80;;;8.13;;
18425;SDS011;9340;48.756;9.226;2023-02-28T14:50:18;8.82;;;7.93;;
18425;SDS011;9340;48.756;9.226;2023-02-28T14:52:45;10.93;;;9.20;;
18425;SDS011;9340;48.756;9.226;2023-02-28T14:55:13;8.53;;;7.63;;
18425;SDS011;9340;48.756;9.226;2023-02-28T14:57:50;10.37;;;7.83;;
18425;SDS011;9340;48.756;9.226;2023-02-28T15:00:20;11.93;;;10.37;;
18425;SDS011;9340;48.756;9.226;2023-02-28T15:02:50;8.67;;;7.80;;
18425;SDS011;9340;48.756;9.226;2023-02-28T15:05:28;10.73;;;9.03;;
18425;SDS011;9340;48.756;9.226;2023-02-28T15:08:06;10.43;;;8.23;;
18425;SDS011;9340;48.756;9.226;2023-02-28T15:10:38;10.10;;;8.57;;
18425;SDS011;9340;48.756;9.226;2023-02-28T15:13:06;9.07;;;8.17;;
18425;SDS011;9340;48.756;9.226;2023-02-28T15:15:40;8.43;;;7.60;;
18425;SDS011;9340;48.756;9.226;2023-02-28T15:18:13;10.53;;;9.17;;
18425;SDS011;9340;48.756;9.226;2023-02-28T15:20:49;10.60;;;8.37;;
18425;SDS011;9340;48.756;9.226;2023-02-28T15:23:17;9.00;;;8.10;;
18425;SDS011;9340;48.756;9.226;2023-02-28T15:25:46;9.47;;;8.33;;
18425;SDS011;9340;48.756;9.226;2023-02-28T15:28:14;8.57;;;7.53;;
18425;SDS011;9340;48.756;9.226;2023-02-28T15:30:53;9.27;;;8.00;;
18425;SDS011;9340;48.756;9.226;2023-02-28T15:33:24;9.97;;;8.70;;
18425;SDS011;9340;48.756;9.226;2023-02-28T15:36:02;8.87;;;7.97;;
18425;SDS011;9340;48.756;9.226;2023-02-28T15:38:33;9.63;;;8.07;;
18425;SDS011;9340;48.756;9.226;2023-02-28T15:41:00;11.83;;;7.83;;
18425;SDS011;9340;48.756;9.226;2023-02-28T15:43:28;8.83;;;7.93;;
18425;SDS011;9340;48.756;9.226;2023-02-28T15:45:58;10.00;;;8.80;;
18425;SDS011;9340;48.756;9.226;2023-02-28T15:48:29;8.63;;;7.53;;